Time;durP1;ratioP1;P1;durP2;ratioP2;P2;SDS_P1;SDS_P2;PMS_P1;PMS_P2;Temp;Humidity;BMP_temperature;BMP_pressure;BME280_temperature;BME280_humidity;BME280_pressure;Samples;Min_cycle;Max_cycle;Signal;HPM_P1;HPM_P2
2023/04/29 00:00:44;;;;;;;24.60;9.60;;;;;;;11.64;62.50;99941.83;110221;1270;23464;-61
2023/04/29 00:03:20;;;;;;;32.50;10.10;;;;;;;11.62;62.40;99936.19;110222;1270;22170;-61
2023/04/29 00:05:51;;;;;;;31.10;10.00;;;;;;;11.61;62.60;99933.52;110214;1269;22381;-61
2023/04/29 00:08:22;;;;;;;27.30;10.00;;;;;;;11.61;62.74;99928.13;110245;1270;22182;-60
2023/04/29 00:10:54;;;;;;;27.20;9.70;;;;;;;11.61;62.83;99928.38;110205;1264;22216;-61
2023/04/29 00:13:25;;;;;;;22.10;8.60;;;;;;;11.59;62.89;99923.33;110233;1270;22261;-60
2023/04/29 00:15:56;;;;;;;20.60;8.30;;;;;;;11.58;63.05;99925.14;110210;1271;22224;-61
2023/04/29 00:18:27;;;;;;;25.80;10.30;;;;;;;11.58;63.29;99920.32;110215;1267;22149;-61
2023/04/29 00:20:58;;;;;;;24.80;10.00;;;;;;;11.57;63.27;99921.42;110237;1269;23171;-61
2023/04/29 00:23:29;;;;;;;23.20;9.20;;;;;;;11.57;63.37;99918.36;110247;1264;22244;-60
2023/04/29 00:26:00;;;;;;;22.60;9.50;;;;;;;11.58;63.29;99916.90;110249;1270;22268;-61
2023/04/29 00:28:30;;;;;;;21.10;7.70;;;;;;;11.58;63.34;99917.42;110207;1270;22337;-61
2023/04/29 00:31:02;;;;;;;23.30;8.90;;;;;;;11.59;63.42;99917.79;110248;1264;23193;-61
2023/04/29 00:33:32;;;;;;;22.90;8.90;;;;;;;11.58;63.54;99916.77;110234;1271;22508;-61
2023/04/29 00:36:03;;;;;;;25.70;9.20;;;;;;;11.57;63.57;99916.02;110243;1269;22247;-60
2023/04/29 00:38:34;;;;;;;25.20;8.90;;;;;;;11.56;63.87;99912.05;110240;1277;22335;-60
2023/04/29 00:41:06;;;;;;;20.20;8.40;;;;;;;11.54;63.79;99907.73;110190;1270;22248;-60
2023/04/29 00:43:36;;;;;;;22.70;9.40;;;;;;;11.52;63.87;99903.09;110230;1267;22305;-61
2023/04/29 00:46:09;;;;;;;19.20;8.20;;;;;;;11.52;63.94;99900.59;110215;1270;22198;-60
2023/04/29 00:48:41;;;;;;;21.20;9.30;;;;;;;11.49;64.06;99899.30;110218;1270;22265;-61
2023/04/29 00:51:12;;;;;;;25.40;8.80;;;;;;;11.46;64.08;99900.02;109819;1270;22525;-60
2023/04/29 00:53:43;;;;;;;24.80;8.70;;;;;;;11.44;64.22;99896.44;106354;1270;22568;-60
2023/04/29 00:56:14;;;;;;;23.70;9.40;;;;;;;11.39;64.04;99892.45;110241;1277;22209;-61
2023/04/29 00:58:48;;;;;;;26.40;9.60;;;;;;;11.39;64.04;99894.57;110215;1274;22204;-60
2023/04/29 01:01:20;;;;;;;23.70;8.30;;;;;;;11.38;64.15;99889.13;110140;1273;23076;-61
2023/04/29 01:03:51;;;;;;;22.70;9.40;;;;;;;11.36;64.08;99893.71;110266;1267;22213;-61
2023/04/29 01:06:32;;;;;;;22.60;8.20;;;;;;;11.33;64.18;99892.33;110242;1264;22873;-61
2023/04/29 01:09:20;;;;;;;22.50;8.70;;;;;;;11.30;64.07;99893.27;110244;1269;22392;-61
2023/04/29 01:12:15;;;;;;;20.90;8.90;;;;;;;11.26;64.08;99889.52;110193;1264;23497;-60
2023/04/29 01:14:54;;;;;;;20.90;9.30;;;;;;;11.25;64.31;99889.70;110250;1262;22320;-60
2023/04/29 01:17:29;;;;;;;21.20;9.10;;;;;;;11.22;64.25;99885.80;110273;1276;22158;-60
2023/04/29 01:20:01;;;;;;;21.80;8.60;;;;;;;11.20;64.38;99888.00;110217;1270;22225;-60
2023/04/29 01:22:32;;;;;;;20.80;8.40;;;;;;;11.19;64.32;99889.17;110246;1273;22345;-61
2023/04/29 01:25:03;;;;;;;26.10;8.70;;;;;;;11.18;64.50;99890.23;110234;1263;23021;-64
2023/04/29 01:27:39;;;;;;;34.00;8.10;;;;;;;11.17;64.56;99891.99;110201;1265;22189;-60
2023/04/29 01:30:26;;;;;;;21.10;8.20;;;;;;;11.17;64.62;99892.35;110192;1267;22261;-61
2023/04/29 01:33:03;;;;;;;27.00;8.50;;;;;;;11.16;64.68;99889.19;110240;1270;22289;-60
2023/04/29 01:35:46;;;;;;;23.30;9.10;;;;;;;11.14;64.75;99886.08;110282;1270;22217;-61
2023/04/29 01:38:43;;;;;;;21.30;8.20;;;;;;;11.12;64.79;99885.60;110237;1277;22174;-60
2023/04/29 01:41:18;;;;;;;21.80;7.80;;;;;;;11.10;64.90;99885.33;110225;1276;22361;-61
2023/04/29 01:43:52;;;;;;;21.60;8.00;;;;;;;11.07;65.11;99883.61;110093;1270;22179;-60
2023/04/29 01:46:23;;;;;;;21.70;7.90;;;;;;;11.05;65.07;99884.34;110256;1263;22177;-60
2023/04/29 01:48:55;;;;;;;19.30;7.70;;;;;;;11.03;64.96;99884.01;110234;1270;22217;-60
2023/04/29 01:51:27;;;;;;;17.80;7.30;;;;;;;11.00;65.10;99887.44;110238;1266;22344;-60
2023/04/29 01:53:58;;;;;;;21.40;7.20;;;;;;;10.99;65.33;99885.51;110219;1270;22246;-61
2023/04/29 01:56:28;;;;;;;17.30;6.30;;;;;;;10.98;65.30;99884.88;110257;1277;22261;-60
2023/04/29 01:58:59;;;;;;;18.20;6.90;;;;;;;10.98;65.33;99884.58;110261;1265;22270;-61
2023/04/29 02:01:30;;;;;;;17.90;6.30;;;;;;;10.96;65.41;99886.17;110247;1267;22448;-61
2023/04/29 02:04:01;;;;;;;20.00;7.20;;;;;;;10.96;65.56;99887.54;110247;1270;22186;-61
2023/04/29 02:06:32;;;;;;;21.10;6.90;;;;;;;10.95;65.55;99883.87;110248;1270;23167;-61
2023/04/29 02:09:03;;;;;;;23.30;7.30;;;;;;;10.94;65.62;99885.13;110227;1262;23378;-61
2023/04/29 02:11:34;;;;;;;21.80;6.80;;;;;;;10.94;65.85;99886.39;110246;1277;22361;-61
2023/04/29 02:14:05;;;;;;;20.70;6.90;;;;;;;10.94;65.75;99883.91;110255;1267;22181;-60
2023/04/29 02:16:36;;;;;;;18.20;7.10;;;;;;;10.95;65.79;99882.44;110220;1262;22157;-60
2023/04/29 02:19:07;;;;;;;19.20;7.10;;;;;;;10.95;65.74;99884.39;110245;1270;22922;-61
2023/04/29 02:21:38;;;;;;;16.60;7.00;;;;;;;10.97;65.88;99885.98;110219;1270;23002;-61
2023/04/29 02:24:10;;;;;;;18.60;7.70;;;;;;;10.96;66.02;99883.36;110246;1270;22193;-60
2023/04/29 02:26:40;;;;;;;19.40;5.70;;;;;;;10.96;65.88;99880.74;109472;1267;24966;-60
2023/04/29 02:29:11;;;;;;;19.20;7.40;;;;;;;10.97;65.90;99878.30;106296;1277;22637;-60
2023/04/29 02:31:42;;;;;;;19.30;6.40;;;;;;;10.96;66.09;99875.10;106154;1271;26220;-60
2023/04/29 02:34:13;;;;;;;23.00;7.50;;;;;;;10.94;66.04;99874.41;107066;1262;26655;-59
2023/04/29 02:36:44;;;;;;;13.80;5.70;;;;;;;10.93;66.02;99875.58;106256;1277;22687;-60
2023/04/29 02:39:15;;;;;;;24.10;8.10;;;;;;;10.91;66.12;99872.25;106193;1262;22671;-59
2023/04/29 02:41:46;;;;;;;19.60;7.10;;;;;;;10.91;66.18;99874.02;106203;1270;24653;-59
2023/04/29 02:44:17;;;;;;;18.70;6.50;;;;;;;10.90;66.37;99865.55;106264;1277;26638;-60
2023/04/29 02:46:47;;;;;;;17.00;5.80;;;;;;;10.90;66.33;99866.77;106253;1270;22659;-58
2023/04/29 02:49:18;;;;;;;19.60;6.40;;;;;;;10.87;66.51;99864.29;106263;1265;26722;-60
2023/04/29 02:51:49;;;;;;;18.10;6.80;;;;;;;10.85;66.45;99864.36;106214;1277;22578;-60
2023/04/29 02:54:20;;;;;;;18.30;6.40;;;;;;;10.84;66.43;99857.45;106276;1263;25323;-60
2023/04/29 02:56:51;;;;;;;19.50;7.60;;;;;;;10.84;66.54;99858.70;110242;1269;22158;-60
2023/04/29 02:59:22;;;;;;;21.60;7.20;;;;;;;10.83;66.74;99856.31;110255;1271;22228;-60
2023/04/29 03:01:54;;;;;;;17.90;7.10;;;;;;;10.84;66.81;99854.13;110227;1270;22177;-60
2023/04/29 03:04:25;;;;;;;20.90;6.10;;;;;;;10.84;66.72;99852.77;110238;1270;22188;-61
2023/04/29 03:06:56;;;;;;;18.10;6.60;;;;;;;10.84;66.87;99856.27;110218;1269;22312;-61
2023/04/29 03:09:27;;;;;;;24.30;7.40;;;;;;;10.82;67.05;99853.96;110304;1266;22219;-61
2023/04/29 03:11:58;;;;;;;19.20;5.90;;;;;;;10.80;66.95;99852.38;110270;1269;22236;-60
2023/04/29 03:14:29;;;;;;;18.00;7.80;;;;;;;10.80;67.15;99844.10;110287;1270;22283;-60
2023/04/29 03:17:00;;;;;;;18.70;6.70;;;;;;;10.79;67.13;99846.77;110235;1271;23210;-61
2023/04/29 03:19:31;;;;;;;20.10;6.40;;;;;;;10.79;67.33;99845.34;110254;1273;22310;-62
2023/04/29 03:22:01;;;;;;;18.80;7.40;;;;;;;10.81;67.23;99840.14;110235;1274;22160;-62
2023/04/29 03:24:32;;;;;;;16.10;6.30;;;;;;;10.81;67.19;99838.41;110250;1270;23107;-62
2023/04/29 03:27:03;;;;;;;20.40;6.80;;;;;;;10.81;67.33;99840.25;110246;1270;22216;-62
2023/04/29 03:29:34;;;;;;;17.90;6.30;;;;;;;10.82;67.15;99839.70;110245;1277;22156;-62
2023/04/29 03:32:06;;;;;;;18.00;6.50;;;;;;;10.83;67.19;99837.64;110280;1267;22198;-62
2023/04/29 03:34:36;;;;;;;18.00;6.50;;;;;;;10.85;67.34;99832.52;110279;1269;22332;-62
2023/04/29 03:37:07;;;;;;;19.50;6.70;;;;;;;10.86;67.49;99831.21;109575;1263;22533;-62
2023/04/29 03:39:38;;;;;;;15.40;5.70;;;;;;;10.86;67.89;99832.39;110176;1270;22253;-62
2023/04/29 03:42:09;;;;;;;21.60;6.50;;;;;;;10.84;67.87;99833.13;110242;1270;23384;-62
2023/04/29 03:44:40;;;;;;;19.60;6.30;;;;;;;10.83;68.12;99833.52;110265;1277;22295;-62
2023/04/29 03:47:11;;;;;;;20.00;7.60;;;;;;;10.82;67.95;99831.13;110261;1275;22154;-63
2023/04/29 03:49:42;;;;;;;16.10;6.20;;;;;;;10.81;68.09;99830.91;110249;1262;22400;-62
2023/04/29 03:52:13;;;;;;;18.80;6.90;;;;;;;10.82;68.09;99832.79;110251;1262;22634;-62
2023/04/29 03:54:44;;;;;;;18.00;6.40;;;;;;;10.82;68.05;99833.41;110232;1270;22162;-62
2023/04/29 03:57:15;;;;;;;15.20;6.10;;;;;;;10.82;68.17;99833.96;110236;1266;22244;-62
2023/04/29 03:59:49;;;;;;;16.80;6.40;;;;;;;10.83;68.12;99833.11;110266;1262;23451;-62
2023/04/29 04:02:19;;;;;;;18.10;6.90;;;;;;;10.82;68.30;99829.90;110248;1277;22191;-61
2023/04/29 04:04:50;;;;;;;19.40;6.60;;;;;;;10.82;68.41;99830.57;110258;1271;22249;-62
2023/04/29 04:07:21;;;;;;;23.80;5.90;;;;;;;10.81;68.41;99832.63;110287;1270;22153;-62
2023/04/29 04:09:52;;;;;;;17.20;6.80;;;;;;;10.81;68.51;99831.09;110251;1270;22313;-62
2023/04/29 04:12:23;;;;;;;17.00;6.20;;;;;;;10.82;68.52;99828.17;110224;1270;22265;-62
2023/04/29 04:14:54;;;;;;;18.70;6.60;;;;;;;10.82;68.57;99823.86;110261;1269;22318;-62
2023/04/29 04:17:25;;;;;;;18.40;6.40;;;;;;;10.83;68.72;99824.13;110312;1276;23117;-62
2023/04/29 04:19:56;;;;;;;18.00;6.50;;;;;;;10.83;68.96;99824.27;110271;1270;22242;-65
2023/04/29 04:22:26;;;;;;;17.10;6.20;;;;;;;10.82;68.84;99826.70;110262;1270;23236;-62
2023/04/29 04:24:57;;;;;;;14.20;5.50;;;;;;;10.81;69.32;99835.89;110220;1265;22248;-62
2023/04/29 04:27:28;;;;;;;15.70;6.40;;;;;;;10.79;69.28;99844.84;110244;1270;22299;-62
2023/04/29 04:29:59;;;;;;;20.10;6.20;;;;;;;10.77;69.43;99844.63;110255;1269;22128;-62
2023/04/29 04:32:30;;;;;;;17.60;7.10;;;;;;;10.76;69.35;99845.52;110273;1277;23201;-63
2023/04/29 04:35:01;;;;;;;20.60;6.60;;;;;;;10.76;69.63;99843.59;110256;1265;22254;-62
2023/04/29 04:37:32;;;;;;;19.30;6.50;;;;;;;10.75;69.59;99840.08;110253;1267;22400;-61
2023/04/29 04:40:03;;;;;;;18.20;6.30;;;;;;;10.75;69.68;99836.21;110262;1266;22238;-62
2023/04/29 04:42:34;;;;;;;20.50;6.20;;;;;;;10.76;69.78;99839.27;110249;1267;22869;-62
2023/04/29 04:45:08;;;;;;;19.60;6.20;;;;;;;10.78;69.93;99840.27;110259;1269;22350;-62
2023/04/29 04:47:40;;;;;;;16.80;6.20;;;;;;;10.79;69.91;99848.29;110290;1277;22283;-62
2023/04/29 04:50:11;;;;;;;18.50;6.90;;;;;;;10.80;69.88;99844.96;110244;1277;22216;-62
2023/04/29 04:52:42;;;;;;;17.30;5.90;;;;;;;10.81;69.76;99839.95;110214;1267;23520;-61
2023/04/29 04:55:13;;;;;;;16.00;5.40;;;;;;;10.82;69.73;99844.11;110264;1269;22402;-60
2023/04/29 04:57:45;;;;;;;18.00;6.50;;;;;;;10.84;70.15;99841.99;110234;1270;22340;-61
2023/04/29 05:00:17;;;;;;;17.90;6.60;;;;;;;10.86;70.06;99841.52;110101;1262;22360;-60
2023/04/29 05:02:48;;;;;;;15.00;6.40;;;;;;;10.89;70.16;99843.34;110213;1262;22345;-61
2023/04/29 05:05:19;;;;;;;16.90;5.90;;;;;;;10.93;70.44;99844.45;110272;1262;22399;-61
2023/04/29 05:07:50;;;;;;;16.50;6.20;;;;;;;10.99;70.42;99840.70;110159;1270;22424;-60
2023/04/29 05:10:25;;;;;;;15.70;5.60;;;;;;;11.07;70.51;99833.88;110231;1270;22299;-61
2023/04/29 05:12:56;;;;;;;17.50;6.50;;;;;;;11.18;70.96;99831.76;110255;1267;22281;-61
2023/04/29 05:15:27;;;;;;;21.60;5.40;;;;;;;11.29;70.97;99829.89;110247;1262;23333;-61
2023/04/29 05:17:58;;;;;;;17.50;6.10;;;;;;;11.42;70.92;99834.44;110221;1267;22399;-61
2023/04/29 05:20:29;;;;;;;17.70;6.60;;;;;;;11.54;70.77;99826.55;110214;1270;22339;-61
2023/04/29 05:23:00;;;;;;;16.30;6.40;;;;;;;11.65;70.47;99825.99;110248;1262;22394;-61
2023/04/29 05:25:31;;;;;;;14.60;5.10;;;;;;;11.74;70.60;99820.59;110227;1267;22455;-61
2023/04/29 05:28:03;;;;;;;16.30;5.40;;;;;;;11.81;70.32;99820.14;110209;1267;22395;-61
2023/04/29 05:30:34;;;;;;;14.10;4.90;;;;;;;11.85;70.11;99821.54;110245;1270;22996;-61
2023/04/29 05:33:05;;;;;;;17.20;6.60;;;;;;;11.87;70.15;99831.05;110273;1270;22399;-65
2023/04/29 05:35:36;;;;;;;16.00;5.60;;;;;;;11.90;70.28;99830.06;110269;1274;22384;-61
2023/04/29 05:38:07;;;;;;;13.70;5.00;;;;;;;11.95;70.11;99827.35;110260;1271;23055;-64
2023/04/29 05:40:38;;;;;;;16.40;5.80;;;;;;;12.00;70.15;99828.21;109462;1257;22548;-64
2023/04/29 05:43:08;;;;;;;16.00;6.20;;;;;;;12.06;70.44;99832.61;106220;1270;22517;-61
2023/04/29 05:45:39;;;;;;;20.70;6.60;;;;;;;12.12;70.13;99831.94;106287;1265;22554;-60
2023/04/29 05:48:10;;;;;;;21.60;9.00;;;;;;;12.17;70.37;99838.44;106229;1256;24354;-60
2023/04/29 05:50:41;;;;;;;17.60;6.70;;;;;;;12.21;70.18;99835.70;106284;1270;24420;-61
2023/04/29 05:53:12;;;;;;;16.40;5.60;;;;;;;12.23;69.93;99837.45;106132;1265;22534;-60
2023/04/29 05:55:45;;;;;;;16.90;4.90;;;;;;;12.24;69.91;99833.54;106177;1264;22550;-61
2023/04/29 05:58:16;;;;;;;17.20;6.70;;;;;;;12.27;70.08;99835.59;106234;1254;23035;-60
2023/04/29 06:00:48;;;;;;;15.90;6.30;;;;;;;12.33;70.28;99834.10;106224;1262;24279;-61
2023/04/29 06:03:19;;;;;;;15.20;5.90;;;;;;;12.46;69.98;99837.21;110238;1263;22163;-62
2023/04/29 06:05:50;;;;;;;14.70;5.10;;;;;;;12.56;69.85;99833.45;110242;1262;22968;-62
2023/04/29 06:08:21;;;;;;;17.00;5.90;;;;;;;12.66;70.07;99831.30;108185;1270;23283;-61
2023/04/29 06:10:52;;;;;;;19.50;7.50;;;;;;;12.80;69.86;99832.62;106287;1271;22539;-62
2023/04/29 06:13:23;;;;;;;17.60;6.80;;;;;;;12.93;69.90;99833.08;106359;1270;25490;-61
2023/04/29 06:15:54;;;;;;;17.70;6.80;;;;;;;13.08;69.78;99836.90;106290;1271;22538;-61
2023/04/29 06:18:25;;;;;;;16.90;6.20;;;;;;;13.19;69.64;99842.90;106299;1270;22612;-60
2023/04/29 06:20:56;;;;;;;18.90;5.70;;;;;;;13.31;69.76;99840.48;106267;1269;22651;-61
2023/04/29 06:23:27;;;;;;;18.60;5.40;;;;;;;13.42;69.43;99838.55;106268;1270;24374;-65
2023/04/29 06:25:58;;;;;;;15.10;5.80;;;;;;;13.50;69.19;99837.64;106229;1271;24402;-60
2023/04/29 06:28:29;;;;;;;17.20;5.50;;;;;;;13.57;69.01;99842.19;106280;1265;24930;-60
2023/04/29 06:31:01;;;;;;;16.70;5.70;;;;;;;13.64;68.80;99843.98;106302;1271;25314;-60
2023/04/29 06:33:32;;;;;;;16.80;6.90;;;;;;;13.71;68.79;99846.88;110270;1270;22243;-61
2023/04/29 06:36:06;;;;;;;19.20;7.60;;;;;;;13.78;68.84;99851.98;110251;1270;22326;-61
2023/04/29 06:38:37;;;;;;;22.60;9.10;;;;;;;13.84;68.90;99852.39;110241;1277;22275;-63
2023/04/29 06:41:07;;;;;;;22.40;10.60;;;;;;;13.87;68.42;99852.89;110282;1265;22219;-61
2023/04/29 06:43:38;;;;;;;19.90;9.10;;;;;;;13.88;68.30;99854.79;110254;1271;22310;-62
2023/04/29 06:46:10;;;;;;;20.30;9.10;;;;;;;13.88;68.37;99856.21;110270;1270;22152;-62
2023/04/29 06:48:40;;;;;;;23.70;11.00;;;;;;;13.90;68.36;99856.93;110236;1270;22377;-62
2023/04/29 06:51:11;;;;;;;20.20;9.60;;;;;;;13.89;68.20;99860.45;110274;1262;22220;-62
2023/04/29 06:53:42;;;;;;;17.40;6.30;;;;;;;13.87;68.12;99861.77;110301;1270;22130;-62
2023/04/29 06:56:13;;;;;;;18.20;6.50;;;;;;;13.84;68.21;99859.28;110225;1264;22197;-61
2023/04/29 06:58:44;;;;;;;16.00;6.40;;;;;;;13.78;68.20;99858.51;110282;1271;22324;-67
2023/04/29 07:01:15;;;;;;;19.90;6.90;;;;;;;13.76;68.32;99857.63;110277;1270;22314;-62
2023/04/29 07:03:46;;;;;;;17.70;7.30;;;;;;;13.75;68.36;99860.29;110258;1270;22453;-62
2023/04/29 07:06:17;;;;;;;18.90;7.60;;;;;;;13.72;68.69;99861.27;110162;1270;22190;-66
2023/04/29 07:08:48;;;;;;;18.80;6.80;;;;;;;13.73;68.99;99859.06;110232;1262;23981;-64
2023/04/29 07:11:19;;;;;;;17.20;7.40;;;;;;;13.73;69.23;99861.06;110265;1267;22310;-64
2023/04/29 07:13:50;;;;;;;19.20;6.90;;;;;;;13.72;69.43;99858.50;110182;1271;22315;-62
2023/04/29 07:16:25;;;;;;;15.40;6.30;;;;;;;13.71;69.45;99860.50;110282;1263;22208;-62
2023/04/29 07:18:56;;;;;;;17.90;6.30;;;;;;;13.70;69.49;99861.83;110165;1270;22356;-62
2023/04/29 07:21:27;;;;;;;16.30;5.70;;;;;;;13.69;69.57;99859.73;110253;1270;22279;-62
2023/04/29 07:23:59;;;;;;;15.10;5.50;;;;;;;13.69;69.76;99861.62;110272;1262;22189;-62
2023/04/29 07:26:30;;;;;;;19.70;7.10;;;;;;;13.68;69.96;99860.81;110257;1262;22334;-62
2023/04/29 07:29:01;;;;;;;15.80;5.80;;;;;;;13.65;70.06;99861.27;110250;1267;22269;-62
2023/04/29 07:31:33;;;;;;;16.00;6.10;;;;;;;13.64;70.31;99860.75;110232;1267;22349;-62
2023/04/29 07:34:04;;;;;;;17.40;6.70;;;;;;;13.63;70.62;99863.81;110251;1270;22257;-62
2023/04/29 07:36:35;;;;;;;15.90;6.30;;;;;;;13.63;70.87;99869.25;110231;1262;22201;-64
2023/04/29 07:39:06;;;;;;;19.80;6.40;;;;;;;13.66;71.04;99867.38;110233;1269;22229;-64
2023/04/29 07:41:37;;;;;;;22.20;6.70;;;;;;;13.69;71.12;99862.84;110252;1265;22144;-63
2023/04/29 07:44:08;;;;;;;19.00;7.50;;;;;;;13.71;71.42;99867.14;110214;1270;22267;-63
2023/04/29 07:46:40;;;;;;;17.10;6.60;;;;;;;13.72;71.52;99866.36;110248;1265;22915;-63
2023/04/29 07:49:11;;;;;;;16.20;5.80;;;;;;;13.70;71.57;99865.91;110264;1266;22135;-62
2023/04/29 07:51:44;;;;;;;17.80;6.70;;;;;;;13.65;71.98;99864.98;110174;1267;22318;-62
2023/04/29 07:54:15;;;;;;;20.70;8.10;;;;;;;13.62;72.25;99865.64;108157;1270;22794;-61
2023/04/29 07:56:47;;;;;;;17.20;6.30;;;;;;;13.58;73.01;99866.41;106531;1269;22648;-61
2023/04/29 07:59:18;;;;;;;20.00;7.30;;;;;;;13.53;72.86;99868.99;106577;1265;22573;-61
2023/04/29 08:01:51;;;;;;;17.50;7.00;;;;;;;13.49;73.11;99868.55;106394;1265;23989;-62
2023/04/29 08:04:21;;;;;;;20.10;7.90;;;;;;;13.46;73.70;99872.51;110256;1265;23071;-62
2023/04/29 08:06:53;;;;;;;18.10;7.30;;;;;;;13.44;73.84;99873.08;110192;1263;22158;-60
2023/04/29 08:09:24;;;;;;;19.30;7.50;;;;;;;13.43;74.14;99875.82;110221;1271;22230;-62
2023/04/29 08:11:56;;;;;;;20.10;7.30;;;;;;;13.39;74.45;99875.40;110216;1270;22365;-61
2023/04/29 08:14:27;;;;;;;17.60;6.90;;;;;;;13.36;74.71;99875.23;110224;1276;22398;-61
2023/04/29 08:16:58;;;;;;;17.30;7.50;;;;;;;13.35;74.88;99875.54;110207;1270;22297;-61
2023/04/29 08:19:29;;;;;;;17.50;6.90;;;;;;;13.36;74.99;99879.98;110107;1265;22336;-61
2023/04/29 08:22:02;;;;;;;18.30;8.00;;;;;;;13.39;75.60;99878.66;110169;1271;23478;-61
2023/04/29 08:24:34;;;;;;;21.20;7.70;;;;;;;13.40;75.72;99874.19;110221;1267;22326;-61
2023/04/29 08:27:05;;;;;;;19.60;7.60;;;;;;;13.37;75.32;99875.35;110203;1270;22319;-62
2023/04/29 08:29:38;;;;;;;21.30;8.60;;;;;;;13.33;75.64;99879.84;110250;1274;23317;-62
2023/04/29 08:32:09;;;;;;;17.80;7.80;;;;;;;13.34;75.86;99881.27;110249;1267;22455;-62
2023/04/29 08:34:40;;;;;;;17.90;8.00;;;;;;;13.33;76.06;99879.78;110224;1270;22305;-63
2023/04/29 08:37:11;;;;;;;19.50;7.90;;;;;;;13.32;76.21;99883.77;110217;1265;22289;-62
2023/04/29 08:39:45;;;;;;;18.60;8.60;;;;;;;13.34;76.37;99883.14;110208;1271;22241;-62
2023/04/29 08:42:19;;;;;;;20.10;9.10;;;;;;;13.36;76.68;99880.24;110242;1262;22151;-62
2023/04/29 08:44:53;;;;;;;24.90;10.60;;;;;;;13.35;76.92;99885.90;110221;1261;22268;-62
2023/04/29 08:47:24;;;;;;;22.00;8.60;;;;;;;13.32;76.76;99887.33;110237;1270;22273;-62
2023/04/29 08:49:55;;;;;;;19.30;8.40;;;;;;;13.30;76.73;99891.44;110227;1271;22203;-62
2023/04/29 08:52:27;;;;;;;23.90;8.80;;;;;;;13.27;77.24;99890.88;110199;1263;22510;-61
2023/04/29 08:54:58;;;;;;;21.10;8.40;;;;;;;13.26;77.52;99893.88;110177;1270;22989;-61
2023/04/29 08:57:31;;;;;;;21.00;8.40;;;;;;;13.26;78.01;99897.65;110270;1265;22192;-61
2023/04/29 09:00:03;;;;;;;20.40;9.40;;;;;;;13.24;78.42;99900.70;110234;1261;22298;-59
2023/04/29 09:02:38;;;;;;;21.00;9.00;;;;;;;13.24;78.80;99900.91;110220;1277;22302;-61
2023/04/29 09:05:11;;;;;;;19.10;9.00;;;;;;;13.26;79.05;99902.95;110214;1265;22955;-57
2023/04/29 09:07:43;;;;;;;23.30;8.80;;;;;;;13.26;79.32;99903.98;110187;1262;22148;-55
2023/04/29 09:10:16;;;;;;;20.70;8.80;;;;;;;13.25;79.70;99910.80;110224;1262;22237;-54
2023/04/29 09:12:48;;;;;;;23.40;9.30;;;;;;;13.22;80.01;99912.92;110229;1270;22225;-55
2023/04/29 09:15:19;;;;;;;17.30;8.80;;;;;;;13.19;80.46;99916.34;110223;1267;23743;-55
2023/04/29 09:17:50;;;;;;;23.10;9.30;;;;;;;13.15;80.74;99916.44;110239;1262;23458;-55
2023/04/29 09:20:32;;;;;;;23.80;9.60;;;;;;;13.17;81.09;99917.59;110274;1272;22233;-57
2023/04/29 09:23:04;;;;;;;19.70;8.90;;;;;;;13.19;81.26;99920.16;110271;1265;22285;-55
2023/04/29 09:25:36;;;;;;;23.00;8.90;;;;;;;13.23;81.62;99920.52;110232;1261;23524;-55
2023/04/29 09:28:18;;;;;;;18.10;8.30;;;;;;;13.30;81.97;99923.77;110215;1273;23112;-54
2023/04/29 09:30:50;;;;;;;19.00;9.10;;;;;;;13.36;82.12;99922.55;110177;1270;22330;-60
2023/04/29 09:33:21;;;;;;;20.90;8.80;;;;;;;13.39;82.39;99920.84;110212;1273;22163;-54
2023/04/29 09:35:52;;;;;;;17.90;7.20;;;;;;;13.45;82.56;99923.89;110218;1269;23494;-56
2023/04/29 09:38:23;;;;;;;18.60;8.20;;;;;;;13.51;82.51;99923.50;110271;1270;22299;-55
2023/04/29 09:40:55;;;;;;;16.70;6.90;;;;;;;13.62;83.38;99925.25;110278;1266;22251;-59
2023/04/29 09:43:26;;;;;;;18.40;6.40;;;;;;;13.74;82.89;99929.20;110225;1270;22194;-58
2023/04/29 09:45:57;;;;;;;20.30;8.20;;;;;;;13.85;83.04;99927.23;110218;1270;23342;-59
2023/04/29 09:48:34;;;;;;;21.30;8.00;;;;;;;14.01;84.04;99924.88;110196;1267;22105;-56
2023/04/29 09:51:05;;;;;;;21.20;8.30;;;;;;;14.17;84.22;99924.83;110199;1265;23078;-58
2023/04/29 09:53:37;;;;;;;20.60;8.30;;;;;;;14.27;83.67;99924.89;110260;1270;22284;-58
2023/04/29 09:56:09;;;;;;;18.00;8.90;;;;;;;14.40;84.36;99924.58;110223;1270;22341;-57
2023/04/29 09:58:40;;;;;;;17.40;8.20;;;;;;;14.53;84.21;99922.97;110259;1265;22380;-57
2023/04/29 10:01:13;;;;;;;19.30;8.80;;;;;;;14.70;84.55;99922.98;110210;1270;22233;-58
2023/04/29 10:03:45;;;;;;;19.90;8.40;;;;;;;14.84;84.31;99922.89;110220;1265;22410;-56
2023/04/29 10:06:19;;;;;;;17.40;7.20;;;;;;;14.95;83.78;99924.80;110214;1265;22335;-57
2023/04/29 10:08:50;;;;;;;18.40;7.30;;;;;;;14.98;82.98;99931.27;110240;1268;22449;-57
2023/04/29 10:11:22;;;;;;;16.70;7.40;;;;;;;14.97;82.67;99929.54;110267;1270;22607;-59
2023/04/29 10:13:53;;;;;;;16.90;6.90;;;;;;;14.96;82.69;99923.98;110239;1264;22353;-59
2023/04/29 10:16:30;;;;;;;20.00;6.70;;;;;;;14.99;82.60;99927.38;109073;1271;22569;-59
2023/04/29 10:19:05;;;;;;;21.20;7.80;;;;;;;15.03;82.88;99924.86;110215;1263;22150;-61
2023/04/29 10:21:37;;;;;;;13.70;6.00;;;;;;;15.09;82.58;99923.10;110162;1271;22195;-56
2023/04/29 10:24:12;;;;;;;19.40;6.60;;;;;;;15.13;82.15;99921.23;110203;1271;22475;-59
2023/04/29 10:26:44;;;;;;;16.10;7.10;;;;;;;15.19;81.99;99921.98;107089;1262;22523;-61
2023/04/29 10:29:16;;;;;;;15.30;6.20;;;;;;;15.23;82.11;99923.44;106457;1274;23564;-59
2023/04/29 10:31:48;;;;;;;14.40;6.80;;;;;;;15.29;81.79;99926.54;106413;1265;25427;-56
2023/04/29 10:34:20;;;;;;;13.70;5.40;;;;;;;15.32;81.41;99930.41;106442;1265;25424;-59
2023/04/29 10:36:51;;;;;;;16.60;6.20;;;;;;;15.35;81.22;99925.94;106476;1265;22514;-59
2023/04/29 10:39:34;;;;;;;15.90;7.30;;;;;;;15.36;81.01;99923.84;106264;1258;24226;-60
2023/04/29 10:42:16;;;;;;;19.30;8.00;;;;;;;15.41;81.35;99918.39;110213;1262;23118;-61
2023/04/29 10:45:19;;;;;;;17.60;7.60;;;;;;;15.53;81.75;99914.35;110174;1265;22351;-60
2023/04/29 10:48:20;;;;;;;15.30;6.40;;;;;;;15.67;82.02;99910.93;110198;1262;22352;-59
2023/04/29 10:51:06;;;;;;;15.30;6.00;;;;;;;15.81;81.05;99909.35;110137;1271;22328;-58
2023/04/29 10:53:57;;;;;;;15.80;6.30;;;;;;;15.96;81.22;99909.39;110206;1267;22393;-58
2023/04/29 10:56:37;;;;;;;13.80;5.30;;;;;;;16.09;79.65;99912.81;110212;1265;22096;-62
2023/04/29 10:59:12;;;;;;;14.30;4.70;;;;;;;16.16;79.64;99909.63;110227;1274;22228;-59
2023/04/29 11:01:47;;;;;;;15.20;6.30;;;;;;;16.27;79.73;99907.08;110201;1267;22227;-60
2023/04/29 11:04:19;;;;;;;12.90;5.40;;;;;;;16.37;78.73;99901.85;110225;1258;23400;-59
2023/04/29 11:06:55;;;;;;;11.00;4.70;;;;;;;16.42;78.26;99901.54;110198;1270;22289;-65
2023/04/29 11:09:30;;;;;;;13.00;4.50;;;;;;;16.47;77.47;99904.26;110201;1268;22537;-65
2023/04/29 11:12:04;;;;;;;11.50;4.70;;;;;;;16.46;77.10;99902.83;110170;1270;23082;-65
2023/04/29 11:14:37;;;;;;;10.40;4.10;;;;;;;16.44;76.67;99896.41;110208;1270;22450;-63
2023/04/29 11:17:19;;;;;;;10.90;4.10;;;;;;;16.48;77.10;99894.36;110216;1272;22236;-63
2023/04/29 11:19:52;;;;;;;11.80;4.20;;;;;;;16.56;76.67;99890.52;110197;1271;22239;-63
2023/04/29 11:22:32;;;;;;;9.40;3.40;;;;;;;16.65;77.18;99893.75;110175;1267;22723;-62
2023/04/29 11:25:06;;;;;;;13.10;4.30;;;;;;;16.78;77.21;99896.35;106078;1268;5416667;-62
2023/04/29 11:27:39;;;;;;;10.60;3.70;;;;;;;16.91;77.18;99893.39;110196;1271;22781;-62
2023/04/29 11:30:12;;;;;;;10.10;3.20;;;;;;;16.99;76.00;99892.93;110118;1271;22230;-63
2023/04/29 11:32:43;;;;;;;10.00;3.20;;;;;;;16.95;75.49;99893.95;110207;1262;22291;-62
2023/04/29 11:35:15;;;;;;;10.60;3.90;;;;;;;16.94;75.71;99889.98;110166;1274;22624;-57
2023/04/29 11:37:46;;;;;;;8.80;3.10;;;;;;;16.99;75.71;99892.10;110229;1272;23114;-58
2023/04/29 11:40:17;;;;;;;11.30;3.70;;;;;;;17.04;74.96;99892.51;110190;1268;22987;-56